MOL Partner — 3EBZ5 — position and weather

sailwx.info

Track history (hours):
 
Tides and Currents Weather Stations Pressure Air Temp Water Temp Dewpoint Dewpoint Depression Visibility Wind Speed Wind Dir Waves Ship Positions

MOL Partner

Last reported at 2015-Jul-07 06:33 UTC. Time now 2015-Jul-07 06:51 UTC.
Position N 31°35' E 121°28'.

Length 293 m; draft 6.9 m.

Type: Ship (hazmat cat D). MMSI: 371303000.

Date/timePositionNaut miles runAvg speedWind from/ knotsBaromVisibWave heightAir tempDewpointWater temp
2015-Jul-07 06:33N 31°35' E 121°28'0 0.0
2015-Jul-07 05:33N 31°35' E 121°28'0 0.0
2015-Jul-07 04:31N 31°35' E 121°28'0 0.0
2015-Jul-07 03:25N 31°35' E 121°28'0 0.0
2015-Jul-07 02:33N 31°35' E 121°28'0 0.0
2015-Jul-07 01:33N 31°35' E 121°28'0 0.1
2015-Jul-07 00:33N 31°35' E 121°28'0 0.1
2015-Jul-06 23:33N 31°35' E 121°28'0 0.0
2015-Jul-06 22:33N 31°35' E 121°28'0 0.0
2015-Jul-06 21:33N 31°35' E 121°28'0 0.0
2015-Jul-06 20:33N 31°35' E 121°28'0 0.0
2015-Jul-06 19:33N 31°35' E 121°28'0 0.0
2015-Jul-06 18:33N 31°35' E 121°28'0 0.0
2015-Jul-06 17:33N 31°35' E 121°28'0 0.0
2015-Jul-06 16:33N 31°35' E 121°28'0 0.0
2015-Jul-06 15:33N 31°35' E 121°28'0 0.0
2015-Jul-06 14:30N 31°35' E 121°28'0 0.0
2015-Jul-06 13:33N 31°35' E 121°28'0 0.0
2015-Jul-06 12:27N 31°35' E 121°28'0 0.0
2015-Jul-06 11:33N 31°35' E 121°28'0 0.0
2015-Jul-06 10:33N 31°35' E 121°28'0 0.0
2015-Jul-06 09:33N 31°35' E 121°28'0 0.0
2015-Jul-06 08:33N 31°35' E 121°28'0 0.0
2015-Jul-06 07:33N 31°35' E 121°28'0 0.0
2015-Jul-06 06:33N 31°35' E 121°28'0 0.0
2015-Jul-06 05:33N 31°35' E 121°28'0 0.0
2015-Jul-06 04:33N 31°35' E 121°28'0 0.0
2015-Jul-06 03:33N 31°35' E 121°28'0 0.0
2015-Jul-06 02:33N 31°35' E 121°28'0 0.0
2015-Jul-06 01:33N 31°35' E 121°28'0 0.1
2015-Jul-06 00:33N 31°35' E 121°28'0 0.1
2015-Jul-05 23:33N 31°35' E 121°28'0 0.0
2015-Jul-05 22:33N 31°35' E 121°28'0 0.0
2015-Jul-05 21:33N 31°35' E 121°28'0 0.0
2015-Jul-05 20:33N 31°35' E 121°28'0 0.0
2015-Jul-05 19:33N 31°35' E 121°28'0 0.0
2015-Jul-05 18:33N 31°35' E 121°28'0 0.0
2015-Jul-05 17:33N 31°35' E 121°28'0 0.0
2015-Jul-05 16:33N 31°35' E 121°28'0 0.0
2015-Jul-05 15:30N 31°35' E 121°28'0 0.0
2015-Jul-05 14:33N 31°35' E 121°28'0 0.0
2015-Jul-05 13:33N 31°35' E 121°28'0 0.0
2015-Jul-05 12:33N 31°35' E 121°28'0 0.0
2015-Jul-05 11:30N 31°35' E 121°28'0 0.0
2015-Jul-05 10:33N 31°35' E 121°28'0 0.0
2015-Jul-05 09:33N 31°35' E 121°28'2 1.7
2015-Jul-05 08:33N 31°34' E 121°29'7 6.6
2015-Jul-05 07:33N 31°30' E 121°35'7 6.6
2015-Jul-05 06:33N 31°28' E 121°28'1212.1
2015-Jul-05 05:33N 31°21' E 121°40'1514.6
2015-Jul-05 04:33N 31°10' E 121°51'1414.2
2015-Jul-05 03:34N 31°04' E 122°06'1212.4
2015-Jul-05 02:33N 31°02' E 122°20'48 1.9
2015-Jul-04 01:30N 30°59' E 123°16'1010.6
2015-Jul-04 00:33N 30°49' E 123°17'1111.1
2015-Jul-03 23:33N 30°39' E 123°12'1110.6
2015-Jul-03 22:33N 30°35' E 123°00'1111.2
2015-Jul-03 21:33N 30°34' E 122°47'1414.3
2015-Jul-03 20:33N 30°31' E 122°31'1414.1
2015-Jul-03 19:33N 30°33' E 122°15'9 1.3
2015-Jul-03 12:29N 30°37' E 122°05'2 2.1
2015-Jul-03 11:33N 30°36' E 122°06'9 9.1
2015-Jul-03 10:33N 30°33' E 122°17'8 7.8
2015-Jul-03 09:32N 30°32' E 122°26'6 0.9
2015-Jul-03 03:18N 30°29' E 122°31'0 0.0
2015-Jul-03 02:24N 30°29' E 122°31'0 0.1
2015-Jul-03 01:33N 30°29' E 122°31'0 0.1
2015-Jul-03 00:33N 30°29' E 122°31'0 0.2
2015-Jul-02 23:33N 30°29' E 122°32'0 0.0
2015-Jul-02 22:33N 30°29' E 122°32'0 0.1
2015-Jul-02 21:33N 30°29' E 122°32'0 0.0
2015-Jul-02 20:33N 30°29' E 122°32'0 0.0
2015-Jul-02 19:33N 30°29' E 122°32'0 0.0
2015-Jul-02 18:27N 30°29' E 122°32'0 0.1
2015-Jul-02 17:33N 30°29' E 122°32'0 0.2
2015-Jul-02 16:33N 30°29' E 122°31'0 0.1
2015-Jul-02 15:33N 30°29' E 122°31'0 0.0
2015-Jul-02 13:33N 30°29' E 122°31'0 0.1
2015-Jul-02 11:30N 30°29' E 122°31'0 0.1
2015-Jul-02 10:18N 30°29' E 122°32'0 0.0
2015-Jul-02 07:33N 30°29' E 122°32'8 7.5
2015-Jul-02 06:27N 30°32' E 122°40'1112.4
2015-Jul-02 05:33N 30°35' E 122°53'3811.2
2015-Jul-02 02:12N 30°52' E 123°31'711.3
2015-Jul-02 01:33N 30°57' E 123°38'1717.0
2015-Jul-02 00:33N 31°06' E 123°55'1414.4
2015-Jul-01 23:33N 31°15' E 124°08'1514.9
2015-Jul-01 22:33N 31°23' E 124°22'1514.8
2015-Jul-01 21:33N 31°32' E 124°36'1414.5
2015-Jul-01 20:33N 31°41' E 124°50'2013.7
2015-Jul-01 19:06N 31°53' E 125°09'713.4
2015-Jul-01 18:33N 31°57' E 125°16'  
Track history (hours):
 
Tides and Currents Weather Stations Pressure Air Temp Water Temp Dewpoint Dewpoint Depression Visibility Wind Speed Wind Dir Waves Ship Positions

MOL Partner

Last reported at 2015-Jul-07 06:33 UTC. Time now 2015-Jul-07 06:51 UTC.
Position N 31°35' E 121°28'.

Length 293 m; draft 6.9 m.

Type: Ship (hazmat cat D). MMSI: 371303000.

Date/timePositionNaut miles runAvg speedWind from/ knotsBaromVisibWave heightAir tempDewpointWater temp
2015-Jul-07 06:33N 31°35' E 121°28'0 0.0
2015-Jul-07 05:33N 31°35' E 121°28'0 0.0
2015-Jul-07 04:31N 31°35' E 121°28'0 0.0
2015-Jul-07 03:25N 31°35' E 121°28'0 0.0
2015-Jul-07 02:33N 31°35' E 121°28'0 0.0
2015-Jul-07 01:33N 31°35' E 121°28'0 0.1
2015-Jul-07 00:33N 31°35' E 121°28'0 0.1
2015-Jul-06 23:33N 31°35' E 121°28'0 0.0
2015-Jul-06 22:33N 31°35' E 121°28'0 0.0
2015-Jul-06 21:33N 31°35' E 121°28'0 0.0
2015-Jul-06 20:33N 31°35' E 121°28'0 0.0
2015-Jul-06 19:33N 31°35' E 121°28'0 0.0
2015-Jul-06 18:33N 31°35' E 121°28'0 0.0
2015-Jul-06 17:33N 31°35' E 121°28'0 0.0
2015-Jul-06 16:33N 31°35' E 121°28'0 0.0
2015-Jul-06 15:33N 31°35' E 121°28'0 0.0
2015-Jul-06 14:30N 31°35' E 121°28'0 0.0
2015-Jul-06 13:33N 31°35' E 121°28'0 0.0
2015-Jul-06 12:27N 31°35' E 121°28'0 0.0
2015-Jul-06 11:33N 31°35' E 121°28'0 0.0
2015-Jul-06 10:33N 31°35' E 121°28'0 0.0
2015-Jul-06 09:33N 31°35' E 121°28'0 0.0
2015-Jul-06 08:33N 31°35' E 121°28'0 0.0
2015-Jul-06 07:33N 31°35' E 121°28'0 0.0
2015-Jul-06 06:33N 31°35' E 121°28'0 0.0
2015-Jul-06 05:33N 31°35' E 121°28'0 0.0
2015-Jul-06 04:33N 31°35' E 121°28'0 0.0
2015-Jul-06 03:33N 31°35' E 121°28'0 0.0
2015-Jul-06 02:33N 31°35' E 121°28'0 0.0
2015-Jul-06 01:33N 31°35' E 121°28'0 0.1
2015-Jul-06 00:33N 31°35' E 121°28'0 0.1
2015-Jul-05 23:33N 31°35' E 121°28'0 0.0
2015-Jul-05 22:33N 31°35' E 121°28'0 0.0
2015-Jul-05 21:33N 31°35' E 121°28'0 0.0
2015-Jul-05 20:33N 31°35' E 121°28'0 0.0
2015-Jul-05 19:33N 31°35' E 121°28'0 0.0
2015-Jul-05 18:33N 31°35' E 121°28'0 0.0
2015-Jul-05 17:33N 31°35' E 121°28'0 0.0
2015-Jul-05 16:33N 31°35' E 121°28'0 0.0
2015-Jul-05 15:30N 31°35' E 121°28'0 0.0
2015-Jul-05 14:33N 31°35' E 121°28'0 0.0
2015-Jul-05 13:33N 31°35' E 121°28'0 0.0
2015-Jul-05 12:33N 31°35' E 121°28'0 0.0
2015-Jul-05 11:30N 31°35' E 121°28'0 0.0
2015-Jul-05 10:33N 31°35' E 121°28'0 0.0
2015-Jul-05 09:33N 31°35' E 121°28'2 1.7
2015-Jul-05 08:33N 31°34' E 121°29'7 6.6
2015-Jul-05 07:33N 31°30' E 121°35'7 6.6
2015-Jul-05 06:33N 31°28' E 121°28'1212.1
2015-Jul-05 05:33N 31°21' E 121°40'1514.6
2015-Jul-05 04:33N 31°10' E 121°51'1414.2
2015-Jul-05 03:34N 31°04' E 122°06'1212.4
2015-Jul-05 02:33N 31°02' E 122°20'48 1.9
2015-Jul-04 01:30N 30°59' E 123°16'1010.6
2015-Jul-04 00:33N 30°49' E 123°17'1111.1
2015-Jul-03 23:33N 30°39' E 123°12'1110.6
2015-Jul-03 22:33N 30°35' E 123°00'1111.2
2015-Jul-03 21:33N 30°34' E 122°47'1414.3
2015-Jul-03 20:33N 30°31' E 122°31'1414.1
2015-Jul-03 19:33N 30°33' E 122°15'9 1.3
2015-Jul-03 12:29N 30°37' E 122°05'2 2.1
2015-Jul-03 11:33N 30°36' E 122°06'9 9.1
2015-Jul-03 10:33N 30°33' E 122°17'8 7.8
2015-Jul-03 09:32N 30°32' E 122°26'6 0.9
2015-Jul-03 03:18N 30°29' E 122°31'0 0.0
2015-Jul-03 02:24N 30°29' E 122°31'0 0.1
2015-Jul-03 01:33N 30°29' E 122°31'0 0.1
2015-Jul-03 00:33N 30°29' E 122°31'0 0.2
2015-Jul-02 23:33N 30°29' E 122°32'0 0.0
2015-Jul-02 22:33N 30°29' E 122°32'0 0.1
2015-Jul-02 21:33N 30°29' E 122°32'0 0.0
2015-Jul-02 20:33N 30°29' E 122°32'0 0.0
2015-Jul-02 19:33N 30°29' E 122°32'0 0.0
2015-Jul-02 18:27N 30°29' E 122°32'0 0.1
2015-Jul-02 17:33N 30°29' E 122°32'0 0.2
2015-Jul-02 16:33N 30°29' E 122°31'0 0.1
2015-Jul-02 15:33N 30°29' E 122°31'0 0.0
2015-Jul-02 13:33N 30°29' E 122°31'0 0.1
2015-Jul-02 11:30N 30°29' E 122°31'0 0.1
2015-Jul-02 10:18N 30°29' E 122°32'0 0.0
2015-Jul-02 07:33N 30°29' E 122°32'8 7.5
2015-Jul-02 06:27N 30°32' E 122°40'1112.4
2015-Jul-02 05:33N 30°35' E 122°53'3811.2
2015-Jul-02 02:12N 30°52' E 123°31'711.3
2015-Jul-02 01:33N 30°57' E 123°38'1717.0
2015-Jul-02 00:33N 31°06' E 123°55'1414.4
2015-Jul-01 23:33N 31°15' E 124°08'1514.9
2015-Jul-01 22:33N 31°23' E 124°22'1514.8
2015-Jul-01 21:33N 31°32' E 124°36'1414.5
2015-Jul-01 20:33N 31°41' E 124°50'2013.7
2015-Jul-01 19:06N 31°53' E 125°09'713.4
2015-Jul-01 18:33N 31°57' E 125°16'  

Dump ship's entire track history